Time;durP1;ratioP1;P1;durP2;ratioP2;P2;SDS_P1;SDS_P2;PMS_P1;PMS_P2;Temp;Humidity;BMP_temperature;BMP_pressure;BME280_temperature;BME280_humidity;BME280_pressure;Samples;Min_cycle;Max_cycle;Signal;HPM_P1;HPM_P2
2022/06/03 00:02:08;;;;;;;11.85;10.13;;;;;;;;;;5091998;28;20046;-73
2022/06/03 00:04:46;;;;;;;13.52;10.27;;;;;;;;;;5091959;28;20072;-74
2022/06/03 00:07:30;;;;;;;12.45;11.10;;;;;;;;;;5092112;28;20043;-72
2022/06/03 00:09:57;;;;;;;12.02;10.73;;;;;;;;;;5091888;28;20044;-73
2022/06/03 00:12:25;;;;;;;12.95;11.30;;;;;;;;;;5091926;28;20452;-72
2022/06/03 00:14:59;;;;;;;11.65;10.40;;;;;;;;;;5091624;28;20059;-72
2022/06/03 00:17:32;;;;;;;12.63;10.40;;;;;;;;;;5090610;28;20055;-73
2022/06/03 00:20:07;;;;;;;14.65;8.80;;;;;;;;;;5107398;28;20051;-73
2022/06/03 00:22:37;;;;;;;10.35;8.77;;;;;;;;;;5090403;28;20113;-73
2022/06/03 00:25:15;;;;;;;10.63;7.95;;;;;;;;;;5090367;28;20040;-74
2022/06/03 00:27:59;;;;;;;17.50;7.72;;;;;;;;;;5090518;28;20044;-71
2022/06/03 00:30:44;;;;;;;9.75;6.20;;;;;;;;;;5090274;28;20075;-72
2022/06/03 00:33:26;;;;;;;27.30;8.20;;;;;;;;;;5091449;28;20040;-73
2022/06/03 00:36:11;;;;;;;42.55;8.48;;;;;;;;;;5090137;28;20519;-71
2022/06/03 00:39:00;;;;;;;27.73;8.90;;;;;;;;;;5091377;28;20044;-71
2022/06/03 00:41:33;;;;;;;30.05;8.38;;;;;;;;;;5080926;28;20046;-72
2022/06/03 00:44:01;;;;;;;20.95;8.25;;;;;;;;;;5090822;28;20502;-72
2022/06/03 00:46:36;;;;;;;27.50;7.57;;;;;;;;;;5091149;28;20526;-72
2022/06/03 00:49:05;;;;;;;22.63;8.18;;;;;;;;;;5090947;28;20488;-72
2022/06/03 00:51:38;;;;;;;15.93;7.72;;;;;;;;;;5091206;28;20051;-73
2022/06/03 00:54:27;;;;;;;19.77;6.97;;;;;;;;;;5072800;28;20135;-72
2022/06/03 00:56:59;;;;;;;19.85;6.25;;;;;;;;;;5079941;28;20079;-73
2022/06/03 00:59:34;;;;;;;8.00;5.95;;;;;;;;;;5089783;28;20044;-72
2022/06/03 01:02:06;;;;;;;7.50;6.13;;;;;;;;;;5090856;28;20142;-73
2022/06/03 01:04:32;;;;;;;9.15;5.85;;;;;;;;;;5090737;28;20400;-72
2022/06/03 01:07:27;;;;;;;8.00;5.10;;;;;;;;;;5090727;28;20535;-73
2022/06/03 01:09:56;;;;;;;7.35;5.32;;;;;;;;;;5073099;28;20040;-72
2022/06/03 01:12:25;;;;;;;11.75;6.05;;;;;;;;;;5089685;28;20484;-73
2022/06/03 01:14:58;;;;;;;6.82;6.15;;;;;;;;;;5090294;28;20064;-73
2022/06/03 01:17:30;;;;;;;7.10;6.20;;;;;;;;;;5090508;28;20115;-73
2022/06/03 01:19:59;;;;;;;7.15;6.40;;;;;;;;;;5094164;28;20122;-72
2022/06/03 01:22:44;;;;;;;12.60;7.03;;;;;;;;;;5091693;28;20040;-73
2022/06/03 01:25:22;;;;;;;8.90;6.63;;;;;;;;;;5090355;28;20043;-72
2022/06/03 01:27:57;;;;;;;8.65;6.97;;;;;;;;;;5090217;28;20109;-71
2022/06/03 01:30:31;;;;;;;7.25;6.43;;;;;;;;;;5090637;28;20032;-72
2022/06/03 01:33:01;;;;;;;8.88;7.22;;;;;;;;;;5088938;28;20508;-72
2022/06/03 01:35:30;;;;;;;7.23;6.63;;;;;;;;;;5090391;28;20076;-72
2022/06/03 01:37:59;;;;;;;7.25;6.75;;;;;;;;;;5090044;28;20048;-72
2022/06/03 01:40:57;;;;;;;8.00;7.20;;;;;;;;;;5089253;28;20165;-73
2022/06/03 01:43:41;;;;;;;7.88;7.25;;;;;;;;;;5045283;28;20052;-72
2022/06/03 01:46:10;;;;;;;7.38;6.68;;;;;;;;;;5088787;28;20028;-73
2022/06/03 01:48:42;;;;;;;5.78;5.35;;;;;;;;;;5090269;28;20048;-73
2022/06/03 01:51:27;;;;;;;8.13;7.03;;;;;;;;;;5088731;28;20067;-74
2022/06/03 01:54:05;;;;;;;8.77;7.68;;;;;;;;;;5071877;28;20040;-73
2022/06/03 01:56:31;;;;;;;8.00;7.20;;;;;;;;;;5089382;28;20504;-73
2022/06/03 01:59:16;;;;;;;8.15;7.20;;;;;;;;;;5089779;28;20531;-73
2022/06/03 02:01:42;;;;;;;16.58;7.22;;;;;;;;;;5089980;28;20607;-74
2022/06/03 02:04:32;;;;;;;11.13;7.38;;;;;;;;;;5089710;28;20143;-74
2022/06/03 02:07:17;;;;;;;8.55;7.75;;;;;;;;;;5088644;28;20131;-72
2022/06/03 02:10:04;;;;;;;7.32;6.82;;;;;;;;;;5089650;28;20040;-73
2022/06/03 02:12:30;;;;;;;11.80;7.40;;;;;;;;;;5088727;28;20127;-72
2022/06/03 02:14:55;;;;;;;8.55;7.72;;;;;;;;;;5089406;28;20134;-72
2022/06/03 02:17:21;;;;;;;8.25;7.45;;;;;;;;;;5090053;28;20028;-73
2022/06/03 02:20:00;;;;;;;7.07;6.32;;;;;;;;;;5089673;28;20055;-72
2022/06/03 02:22:32;;;;;;;9.88;6.70;;;;;;;;;;5089877;28;20512;-72
2022/06/03 02:25:16;;;;;;;7.68;7.07;;;;;;;;;;5089400;28;20117;-72
2022/06/03 02:27:52;;;;;;;7.88;7.18;;;;;;;;;;5088638;28;20045;-73
2022/06/03 02:30:32;;;;;;;10.60;8.00;;;;;;;;;;5088732;28;20074;-73
2022/06/03 02:33:16;;;;;;;7.43;6.78;;;;;;;;;;5088151;28;20516;-73
2022/06/03 02:36:01;;;;;;;7.47;6.93;;;;;;;;;;5089486;28;20060;-72
2022/06/03 02:38:46;;;;;;;7.88;7.18;;;;;;;;;;5089476;28;20040;-72
2022/06/03 02:41:31;;;;;;;9.25;7.88;;;;;;;;;;5089481;28;20039;-73
2022/06/03 02:43:57;;;;;;;8.80;7.50;;;;;;;;;;5089319;28;20175;-74
2022/06/03 02:46:42;;;;;;;7.28;6.60;;;;;;;;;;5089674;28;20047;-72
2022/06/03 02:49:20;;;;;;;7.20;6.60;;;;;;;;;;5089205;28;20040;-72
2022/06/03 02:51:53;;;;;;;7.00;6.30;;;;;;;;;;5089392;28;20090;-73
2022/06/03 02:54:22;;;;;;;10.13;7.07;;;;;;;;;;5089480;28;20039;-72
2022/06/03 02:56:54;;;;;;;7.32;6.65;;;;;;;;;;5087917;28;20051;-72
2022/06/03 02:59:29;;;;;;;6.82;6.32;;;;;;;;;;5089245;28;20115;-72
2022/06/03 03:01:58;;;;;;;6.30;5.85;;;;;;;;;;5082414;28;20092;-72
2022/06/03 03:04:43;;;;;;;8.10;6.38;;;;;;;;;;5089185;28;20048;-72
2022/06/03 03:07:15;;;;;;;8.40;6.18;;;;;;;;;;5089156;28;20040;-73
2022/06/03 03:09:44;;;;;;;6.75;5.88;;;;;;;;;;5091926;28;20036;-74
2022/06/03 03:12:16;;;;;;;6.95;6.32;;;;;;;;;;5093019;28;20105;-73
2022/06/03 03:14:42;;;;;;;6.78;6.18;;;;;;;;;;5092977;28;20523;-73
2022/06/03 03:17:14;;;;;;;8.82;7.43;;;;;;;;;;5092766;28;20093;-71
2022/06/03 03:19:52;;;;;;;12.43;8.95;;;;;;;;;;5092852;28;20393;-73
2022/06/03 03:22:24;;;;;;;12.20;9.10;;;;;;;;;;5075021;28;20052;-73
2022/06/03 03:25:09;;;;;;;12.35;8.43;;;;;;;;;;5091450;28;20043;-73
2022/06/03 03:27:56;;;;;;;9.75;8.85;;;;;;;;;;5092815;28;20130;-73
2022/06/03 03:30:41;;;;;;;11.40;9.25;;;;;;;;;;5092846;28;20135;-74
2022/06/03 03:33:10;;;;;;;17.23;10.63;;;;;;;;;;5092402;28;20044;-73
2022/06/03 03:35:38;;;;;;;22.00;12.32;;;;;;;;;;5092674;28;20052;-72
2022/06/03 03:38:23;;;;;;;16.75;11.20;;;;;;;;;;5092328;28;20089;-72
2022/06/03 03:40:49;;;;;;;17.80;11.32;;;;;;;;;;5092268;28;20044;-73
2022/06/03 03:43:36;;;;;;;14.43;9.52;;;;;;;;;;5079994;28;20044;-75
2022/06/03 03:46:02;;;;;;;12.32;9.93;;;;;;;;;;5071020;28;20105;-74
2022/06/03 03:48:31;;;;;;;12.23;8.60;;;;;;;;;;5072299;28;20059;-74
2022/06/03 03:51:07;;;;;;;10.07;6.60;;;;;;;;;;5072352;28;20041;-75
2022/06/03 03:53:52;;;;;;;7.90;7.20;;;;;;;;;;5070883;28;20113;-74
2022/06/03 03:56:21;;;;;;;6.35;5.78;;;;;;;;;;5071861;28;20059;-74
2022/06/03 03:58:47;;;;;;;7.15;6.32;;;;;;;;;;5072015;28;20123;-74
2022/06/03 04:01:32;;;;;;;8.23;6.65;;;;;;;;;;5071822;28;20124;-75
2022/06/03 04:04:04;;;;;;;7.72;6.20;;;;;;;;;;5071655;28;20504;-76
2022/06/03 04:06:39;;;;;;;8.13;5.80;;;;;;;;;;5072053;28;20435;-72
2022/06/03 04:09:14;;;;;;;8.20;5.43;;;;;;;;;;5071567;28;20036;-73
2022/06/03 04:12:00;;;;;;;10.65;6.00;;;;;;;;;;5070880;28;20131;-74
2022/06/03 04:14:25;;;;;;;6.43;5.60;;;;;;;;;;5070424;28;20044;-76
2022/06/03 04:17:10;;;;;;;8.43;5.85;;;;;;;;;;5071723;28;20047;-73
2022/06/03 04:19:36;;;;;;;8.38;5.60;;;;;;;;;;5070934;28;20044;-72
2022/06/03 04:22:03;;;;;;;6.43;5.90;;;;;;;;;;5070512;28;20048;-73
2022/06/03 04:24:35;;;;;;;5.30;4.95;;;;;;;;;;5071761;28;20051;-74
2022/06/03 04:27:17;;;;;;;7.93;5.55;;;;;;;;;;5074967;28;20036;-74
2022/06/03 04:30:02;;;;;;;6.97;6.38;;;;;;;;;;5074777;28;20048;-75
2022/06/03 04:32:38;;;;;;;8.35;5.78;;;;;;;;;;5073415;28;20048;-74
2022/06/03 04:35:04;;;;;;;6.00;5.40;;;;;;;;;;5071132;28;20085;-75
2022/06/03 04:37:38;;;;;;;8.25;6.35;;;;;;;;;;5082485;28;20097;-73
2022/06/03 04:40:04;;;;;;;6.25;5.65;;;;;;;;;;5088996;28;20043;-74
2022/06/03 04:42:49;;;;;;;6.95;5.57;;;;;;;;;;5091066;28;20044;-74
2022/06/03 04:45:15;;;;;;;6.03;5.63;;;;;;;;;;5090600;28;20047;-72
2022/06/03 04:47:50;;;;;;;6.82;5.90;;;;;;;;;;5091079;28;20093;-74
2022/06/03 04:50:18;;;;;;;8.52;6.00;;;;;;;;;;5090927;28;20048;-73
2022/06/03 04:52:56;;;;;;;6.07;5.47;;;;;;;;;;5091253;28;20040;-73
2022/06/03 04:55:45;;;;;;;6.88;6.10;;;;;;;;;;5090600;28;20058;-75
2022/06/03 04:58:30;;;;;;;6.05;5.60;;;;;;;;;;5089639;28;20521;-74
2022/06/03 05:01:15;;;;;;;6.70;5.32;;;;;;;;;;5091271;28;20036;-74
2022/06/03 05:03:44;;;;;;;6.88;5.60;;;;;;;;;;5089561;28;20043;-73
2022/06/03 05:06:22;;;;;;;7.25;6.53;;;;;;;;;;5090799;28;20097;-74
2022/06/03 05:08:58;;;;;;;6.30;5.80;;;;;;;;;;5090889;28;20044;-74
2022/06/03 05:11:30;;;;;;;9.32;5.72;;;;;;;;;;5089367;28;20067;-77
2022/06/03 05:14:29;;;;;;;8.52;5.60;;;;;;;;;;5078961;28;20048;-74
2022/06/03 05:17:15;;;;;;;8.10;6.60;;;;;;;;;;5026400;28;20052;-72
2022/06/03 05:19:48;;;;;;;7.75;7.05;;;;;;;;;;5069094;28;20044;-74
2022/06/03 05:22:14;;;;;;;11.48;8.02;;;;;;;;;;5094662;28;20419;-73
2022/06/03 05:24:43;;;;;;;8.65;7.80;;;;;;;;;;5098045;28;20121;-75
2022/06/03 05:27:28;;;;;;;7.25;6.32;;;;;;;;;;5099059;28;20044;-74
2022/06/03 05:30:14;;;;;;;8.75;6.55;;;;;;;;;;5096610;28;20174;-74
2022/06/03 05:32:59;;;;;;;8.93;5.40;;;;;;;;;;5075294;28;20036;-73
2022/06/03 05:35:25;;;;;;;9.05;6.00;;;;;;;;;;5090302;28;20142;-71
2022/06/03 05:38:09;;;;;;;6.40;5.80;;;;;;;;;;5090745;28;20433;-71
2022/06/03 05:40:36;;;;;;;5.93;4.93;;;;;;;;;;5089845;28;20075;-72
2022/06/03 05:43:28;;;;;;;6.47;5.65;;;;;;;;;;5086274;28;20537;-72
2022/06/03 05:46:10;;;;;;;6.28;5.57;;;;;;;;;;5064325;28;20067;-72
2022/06/03 05:48:39;;;;;;;5.57;5.05;;;;;;;;;;5088866;28;20059;-72
2022/06/03 05:51:25;;;;;;;6.22;5.20;;;;;;;;;;5083291;28;20082;-73
2022/06/03 05:53:55;;;;;;;8.25;5.50;;;;;;;;;;5083136;28;20040;-76
2022/06/03 05:56:29;;;;;;;6.55;5.82;;;;;;;;;;5081799;28;20383;-77
2022/06/03 05:59:10;;;;;;;5.82;5.43;;;;;;;;;;5086755;28;20131;-75
2022/06/03 06:01:41;;;;;;;6.35;5.78;;;;;;;;;;5080391;28;20036;-71
2022/06/03 06:04:14;;;;;;;8.88;6.75;;;;;;;;;;5086940;28;20047;-72
2022/06/03 06:06:51;;;;;;;7.88;7.05;;;;;;;;;;5084098;28;20039;-73
2022/06/03 06:09:20;;;;;;;9.02;8.18;;;;;;;;;;5085580;28;20040;-72
2022/06/03 06:12:01;;;;;;;9.73;7.97;;;;;;;;;;5076535;28;20039;-71
2022/06/03 06:14:27;;;;;;;9.45;8.30;;;;;;;;;;5067262;28;20047;-71
2022/06/03 06:16:53;;;;;;;10.23;7.95;;;;;;;;;;5088307;28;20040;-71
2022/06/03 06:19:28;;;;;;;8.18;7.47;;;;;;;;;;5084214;28;20039;-71
2022/06/03 06:22:07;;;;;;;8.80;7.90;;;;;;;;;;5080089;28;20104;-70
2022/06/03 06:24:51;;;;;;;13.88;7.65;;;;;;;;;;5086885;28;20055;-71
2022/06/03 06:27:29;;;;;;;8.70;7.85;;;;;;;;;;5085183;28;20035;-71
2022/06/03 06:30:16;;;;;;;11.38;8.00;;;;;;;;;;5084838;28;20060;-72
2022/06/03 06:32:45;;;;;;;11.27;10.18;;;;;;;;;;5073305;28;20051;-71
2022/06/03 06:35:11;;;;;;;12.32;10.95;;;;;;;;;;5086430;28;20052;-71
2022/06/03 06:37:53;;;;;;;11.65;10.25;;;;;;;;;;5088483;28;20036;-72
2022/06/03 06:40:39;;;;;;;14.13;11.35;;;;;;;;;;5087154;28;20044;-74
2022/06/03 06:43:25;;;;;;;11.50;10.52;;;;;;;;;;5054009;28;20031;-74
2022/06/03 06:46:10;;;;;;;12.77;11.43;;;;;;;;;;5059917;28;20040;-74
2022/06/03 06:48:59;;;;;;;14.05;11.60;;;;;;;;;;5091951;28;20123;-73
2022/06/03 06:51:25;;;;;;;17.77;11.77;;;;;;;;;;5062094;28;20051;-74
2022/06/03 06:53:53;;;;;;;13.52;12.05;;;;;;;;;;5091776;28;20051;-74
2022/06/03 06:56:29;;;;;;;13.38;12.48;;;;;;;;;;5089923;28;20048;-73
2022/06/03 06:59:04;;;;;;;13.52;12.27;;;;;;;;;;5085653;28;20048;-76
2022/06/03 07:01:35;;;;;;;13.25;11.93;;;;;;;;;;5106245;28;20055;-73
2022/06/03 07:04:01;;;;;;;13.68;12.30;;;;;;;;;;5073396;28;20048;-73
2022/06/03 07:06:44;;;;;;;14.45;12.45;;;;;;;;;;5106068;28;20173;-73
2022/06/03 07:09:10;;;;;;;17.88;12.80;;;;;;;;;;5089247;28;20130;-68
2022/06/03 07:11:50;;;;;;;10.60;9.70;;;;;;;;;;5091294;28;20119;-72
2022/06/03 07:14:20;;;;;;;12.65;11.45;;;;;;;;;;5086876;28;20483;-72
2022/06/03 07:19:48;;;;;;;14.50;10.02;;;;;;;;;;5090771;28;20048;-70
2022/06/03 07:22:19;;;;;;;14.88;11.90;;;;;;;;;;5090475;28;20112;-73
2022/06/03 07:25:08;;;;;;;12.68;11.23;;;;;;;;;;5089827;28;20058;-71
2022/06/03 07:27:43;;;;;;;8.07;7.28;;;;;;;;;;5080084;28;20036;-72
2022/06/03 07:30:23;;;;;;;11.23;7.72;;;;;;;;;;5090236;28;20047;-72
2022/06/03 07:32:49;;;;;;;8.23;7.43;;;;;;;;;;5087413;28;20543;-71
2022/06/03 07:35:19;;;;;;;13.65;10.60;;;;;;;;;;5090753;28;20142;-72
2022/06/03 07:37:57;;;;;;;12.30;11.20;;;;;;;;;;5106471;28;20427;-72
2022/06/03 07:40:30;;;;;;;12.45;10.15;;;;;;;;;;5101292;28;20123;-70
2022/06/03 07:42:56;;;;;;;11.07;9.95;;;;;;;;;;5090188;28;20032;-71
2022/06/03 07:45:26;;;;;;;10.48;9.55;;;;;;;;;;5081868;28;20040;-71
2022/06/03 07:47:57;;;;;;;13.02;10.48;;;;;;;;;;5089093;28;20032;-70
2022/06/03 07:50:24;;;;;;;10.95;9.80;;;;;;;;;;5085087;28;20641;-69
2022/06/03 07:52:52;;;;;;;10.85;9.95;;;;;;;;;;5073089;28;20325;-69
2022/06/03 07:55:22;;;;;;;9.52;8.73;;;;;;;;;;5087200;28;20054;-70
2022/06/03 07:57:49;;;;;;;;;;;;;;;;;;5086208;28;20060;-68
2022/06/03 08:00:15;;;;;;;7.63;7.03;;;;;;;;;;5090186;28;19912;-69
2022/06/03 08:02:41;;;;;;;9.02;7.45;;;;;;;;;;5090112;28;20036;-71
2022/06/03 08:05:07;;;;;;;6.85;6.20;;;;;;;;;;5087545;28;20130;-71
2022/06/03 08:13:04;;;;;;;7.60;6.90;;;;;;;;;;5089254;28;20043;-71
2022/06/03 08:15:33;;;;;;;11.13;6.47;;;;;;;;;;5087741;28;20052;-71
2022/06/03 08:18:00;;;;;;;8.32;7.63;;;;;;;;;;5090529;28;20036;-69
2022/06/03 08:20:26;;;;;;;9.52;8.30;;;;;;;;;;5089577;28;20360;-70
2022/06/03 08:22:52;;;;;;;11.55;8.82;;;;;;;;;;5090202;28;20519;-70
2022/06/03 08:25:25;;;;;;;10.98;8.25;;;;;;;;;;5089791;28;20285;-72
2022/06/03 08:27:51;;;;;;;9.63;7.30;;;;;;;;;;5085912;28;20032;-71
2022/06/03 08:30:18;;;;;;;10.30;7.43;;;;;;;;;;5089726;28;20082;-68
2022/06/03 08:32:46;;;;;;;8.30;6.65;;;;;;;;;;5087883;28;20036;-70
2022/06/03 08:35:16;;;;;;;8.75;6.53;;;;;;;;;;5088085;28;20055;-70
2022/06/03 08:37:41;;;;;;;8.27;7.15;;;;;;;;;;5088310;28;20036;-70
2022/06/03 08:40:28;;;;;;;7.13;6.43;;;;;;;;;;5089710;28;20039;-71
2022/06/03 08:42:54;;;;;;;5.85;5.50;;;;;;;;;;5089023;28;20040;-70
2022/06/03 08:45:20;;;;;;;7.70;6.95;;;;;;;;;;5082131;28;20460;-69
2022/06/03 08:47:56;;;;;;;5.90;5.47;;;;;;;;;;5089704;28;20138;-70
2022/06/03 08:50:42;;;;;;;6.47;5.88;;;;;;;;;;5088707;28;20052;-69
2022/06/03 08:53:14;;;;;;;6.45;5.90;;;;;;;;;;5084882;28;20044;-70
2022/06/03 11:12:51;;;;;;;6.68;6.05;;;;;;;;;;5080279;28;20539;-70
2022/06/03 11:15:31;;;;;;;6.57;6.18;;;;;;;;;;5073858;28;20527;-72
2022/06/03 11:18:00;;;;;;;5.78;5.25;;;;;;;;;;5087041;28;20083;-72
2022/06/03 11:20:36;;;;;;;5.72;5.25;;;;;;;;;;5087801;28;20048;-73
2022/06/03 11:23:04;;;;;;;8.98;6.07;;;;;;;;;;5089115;28;20036;-72
2022/06/03 11:25:30;;;;;;;8.02;7.43;;;;;;;;;;5070700;28;20040;-73
2022/06/03 11:28:00;;;;;;;5.97;5.40;;;;;;;;;;5070987;28;20127;-73
2022/06/03 11:30:29;;;;;;;3.97;3.67;;;;;;;;;;5074353;28;20046;-73
2022/06/03 11:32:55;;;;;;;5.78;4.03;;;;;;;;;;5092470;28;20043;-73
2022/06/03 11:35:23;;;;;;;4.35;4.07;;;;;;;;;;5092292;28;20056;-73
2022/06/03 11:37:52;;;;;;;6.30;5.18;;;;;;;;;;5074703;28;20520;-73
2022/06/03 11:40:19;;;;;;;6.40;5.82;;;;;;;;;;5092629;28;20117;-74
2022/06/03 11:42:47;;;;;;;6.13;5.63;;;;;;;;;;5074711;28;20040;-72
2022/06/03 11:45:14;;;;;;;7.22;6.18;;;;;;;;;;5057579;28;20527;-73
2022/06/03 11:47:40;;;;;;;4.88;4.57;;;;;;;;;;5074179;28;20047;-72
2022/06/03 11:50:06;;;;;;;7.57;5.60;;;;;;;;;;5074356;28;20427;-72
2022/06/03 11:52:32;;;;;;;3.35;3.05;;;;;;;;;;5057510;28;20036;-73
2022/06/03 11:54:58;;;;;;;3.75;3.45;;;;;;;;;;5092305;28;20048;-72
2022/06/03 11:57:24;;;;;;;5.90;4.10;;;;;;;;;;5092221;28;20059;-72
2022/06/03 11:59:50;;;;;;;5.38;4.35;;;;;;;;;;5092420;28;20085;-73
2022/06/03 12:02:25;;;;;;;7.78;4.30;;;;;;;;;;5092590;28;20514;-74
2022/06/03 12:04:52;;;;;;;4.88;4.57;;;;;;;;;;5092138;28;20097;-73
2022/06/03 12:07:28;;;;;;;4.82;4.00;;;;;;;;;;5092374;28;20047;-73
2022/06/03 12:10:00;;;;;;;4.75;4.30;;;;;;;;;;5091895;28;20032;-72
2022/06/03 12:13:17;;;;;;;8.40;4.00;;;;;;;;;;5091783;28;20054;-72
2022/06/03 12:15:30;;;;;;;4.07;3.70;;;;;;;;;;5077881;28;20083;-73
2022/06/03 12:18:16;;;;;;;4.35;3.72;;;;;;;;;;5091878;28;20074;-72
2022/06/03 12:20:48;;;;;;;4.40;4.20;;;;;;;;;;5091149;28;20055;-72
2022/06/03 12:23:14;;;;;;;5.38;5.07;;;;;;;;;;5091981;28;20507;-72
2022/06/03 12:25:40;;;;;;;5.05;4.75;;;;;;;;;;5091719;28;20047;-71
2022/06/03 12:28:08;;;;;;;7.05;4.45;;;;;;;;;;5091755;28;20051;-72
2022/06/03 12:30:36;;;;;;;6.28;4.15;;;;;;;;;;5091392;28;20044;-72
2022/06/03 12:33:03;;;;;;;4.60;3.67;;;;;;;;;;5073566;28;20415;-71
2022/06/03 12:35:48;;;;;;;4.70;3.70;;;;;;;;;;5073278;28;20147;-72
2022/06/03 12:38:20;;;;;;;3.70;3.30;;;;;;;;;;5091653;28;20073;-72
2022/06/03 12:40:47;;;;;;;3.67;3.47;;;;;;;;;;5090983;28;20036;-72
2022/06/03 12:43:28;;;;;;;3.92;3.72;;;;;;;;;;5056938;28;20044;-72
2022/06/03 12:46:01;;;;;;;3.50;3.22;;;;;;;;;;5091290;28;20062;-72
2022/06/03 12:48:55;;;;;;;7.72;3.35;;;;;;;;;;5072864;28;20097;-72
2022/06/03 12:51:23;;;;;;;6.32;4.25;;;;;;;;;;5087153;28;20411;-72
2022/06/03 12:53:50;;;;;;;3.85;3.65;;;;;;;;;;5091028;28;20048;-72
2022/06/03 12:56:39;;;;;;;5.72;3.30;;;;;;;;;;5072845;28;20064;-73
2022/06/03 12:59:07;;;;;;;9.05;4.30;;;;;;;;;;5080501;28;20059;-72
2022/06/03 13:01:34;;;;;;;5.93;3.63;;;;;;;;;;5072662;28;20040;-72
2022/06/03 13:04:20;;;;;;;6.18;4.38;;;;;;;;;;5073133;28;20036;-72
2022/06/03 13:07:04;;;;;;;4.05;3.75;;;;;;;;;;5090932;28;20040;-72
2022/06/03 13:09:50;;;;;;;5.20;3.22;;;;;;;;;;5090831;28;20048;-73
2022/06/03 13:12:22;;;;;;;6.63;3.17;;;;;;;;;;5090755;28;20086;-72
2022/06/03 13:14:48;;;;;;;3.08;2.88;;;;;;;;;;5090754;28;20036;-72
2022/06/03 13:17:33;;;;;;;3.20;3.00;;;;;;;;;;5072811;28;20042;-72
2022/06/03 13:19:59;;;;;;;5.47;2.83;;;;;;;;;;5072588;28;20122;-72
2022/06/03 13:22:26;;;;;;;4.10;3.80;;;;;;;;;;5090616;28;20296;-73
2022/06/03 13:25:11;;;;;;;4.07;3.70;;;;;;;;;;5090647;28;20043;-72
2022/06/03 13:27:37;;;;;;;3.85;3.55;;;;;;;;;;5090420;28;20048;-72
2022/06/03 13:30:08;;;;;;;3.65;3.45;;;;;;;;;;5090433;28;20127;-74
2022/06/03 13:32:34;;;;;;;5.00;2.90;;;;;;;;;;5090445;28;20055;-73
2022/06/03 13:35:19;;;;;;;3.20;3.00;;;;;;;;;;5090258;28;20044;-73
2022/06/03 13:37:49;;;;;;;6.47;3.85;;;;;;;;;;5090394;28;20047;-73
2022/06/03 13:40:20;;;;;;;3.03;2.80;;;;;;;;;;5090510;28;20046;-72
2022/06/03 13:42:59;;;;;;;2.50;2.40;;;;;;;;;;5072259;28;20043;-72
2022/06/03 13:45:45;;;;;;;3.03;2.83;;;;;;;;;;5056966;28;20513;-73
2022/06/03 13:48:15;;;;;;;4.43;3.10;;;;;;;;;;5075994;28;20044;-73
2022/06/03 13:50:41;;;;;;;2.53;2.42;;;;;;;;;;5055397;28;20036;-72
2022/06/03 13:53:08;;;;;;;3.45;3.15;;;;;;;;;;5071348;28;20044;-72
2022/06/03 13:55:38;;;;;;;3.15;2.95;;;;;;;;;;5071764;28;20056;-73
2022/06/03 13:58:12;;;;;;;5.28;2.95;;;;;;;;;;5090391;28;20040;-72
2022/06/03 14:00:39;;;;;;;2.92;2.65;;;;;;;;;;5090120;28;20451;-71
2022/06/03 14:03:05;;;;;;;6.35;3.15;;;;;;;;;;5090165;28;20044;-72
2022/06/03 14:05:31;;;;;;;3.35;2.70;;;;;;;;;;5071706;28;20130;-71
2022/06/03 14:07:59;;;;;;;2.30;2.20;;;;;;;;;;5090184;28;20093;-71
2022/06/03 14:10:25;;;;;;;3.08;2.50;;;;;;;;;;5089869;28;20109;-73
2022/06/03 14:13:04;;;;;;;4.13;2.50;;;;;;;;;;5089375;28;20048;-71
2022/06/03 14:15:36;;;;;;;2.80;2.60;;;;;;;;;;5071481;28;20114;-72
2022/06/03 14:18:02;;;;;;;2.70;2.47;;;;;;;;;;5090007;28;20036;-71
2022/06/03 14:20:55;;;;;;;2.65;2.53;;;;;;;;;;5089408;28;20055;-71
2022/06/03 14:23:26;;;;;;;3.03;2.30;;;;;;;;;;5068200;28;20056;-71
2022/06/03 14:25:55;;;;;;;4.40;2.40;;;;;;;;;;5089528;28;20150;-71
2022/06/03 14:28:20;;;;;;;3.75;1.85;;;;;;;;;;5071793;28;20032;-71
2022/06/03 14:31:00;;;;;;;3.15;2.17;;;;;;;;;;5089315;28;20101;-72
2022/06/03 14:33:29;;;;;;;1.48;1.40;;;;;;;;;;5071776;28;20126;-71
2022/06/03 14:35:59;;;;;;;2.08;1.98;;;;;;;;;;5089305;28;20060;-71
2022/06/03 14:38:29;;;;;;;2.70;2.50;;;;;;;;;;5089243;28;20044;-72
2022/06/03 14:40:55;;;;;;;2.42;2.30;;;;;;;;;;5089616;28;20131;-72
2022/06/03 14:43:24;;;;;;;2.72;2.33;;;;;;;;;;5071962;28;20123;-72
2022/06/03 14:45:54;;;;;;;2.03;1.92;;;;;;;;;;5071764;28;20400;-70
2022/06/03 14:48:22;;;;;;;5.03;2.47;;;;;;;;;;5055551;28;20275;-72
2022/06/03 14:50:51;;;;;;;2.47;1.95;;;;;;;;;;5089787;28;20459;-76
2022/06/03 14:53:17;;;;;;;2.60;2.40;;;;;;;;;;5089902;28;20028;-73
2022/06/03 14:55:44;;;;;;;2.15;2.00;;;;;;;;;;5071252;28;20055;-71
2022/06/03 14:58:10;;;;;;;2.03;1.90;;;;;;;;;;5089679;28;20070;-71
2022/06/03 15:00:56;;;;;;;2.65;2.33;;;;;;;;;;5085588;28;20075;-72
2022/06/03 15:03:24;;;;;;;3.03;2.72;;;;;;;;;;5075733;28;20507;-71
2022/06/03 15:05:50;;;;;;;2.70;2.50;;;;;;;;;;5093086;28;20040;-71
2022/06/03 15:08:18;;;;;;;2.70;2.50;;;;;;;;;;5093387;28;20044;-70
2022/06/03 15:10:46;;;;;;;3.53;2.22;;;;;;;;;;5068276;28;20063;-70
2022/06/03 15:13:20;;;;;;;6.78;2.50;;;;;;;;;;5068836;28;20469;-70
2022/06/03 15:15:48;;;;;;;1.58;1.55;;;;;;;;;;5072484;28;20139;-70
2022/06/03 15:18:15;;;;;;;2.15;2.00;;;;;;;;;;5072787;28;20123;-70
2022/06/03 15:20:42;;;;;;;1.88;1.70;;;;;;;;;;5071274;28;20406;-69
2022/06/03 15:23:08;;;;;;;2.28;2.17;;;;;;;;;;5072748;28;20075;-70
2022/06/03 15:25:37;;;;;;;5.05;2.10;;;;;;;;;;5072241;28;20397;-71
2022/06/03 15:28:04;;;;;;;2.20;2.10;;;;;;;;;;5082172;28;20048;-69
2022/06/03 15:30:41;;;;;;;6.20;2.22;;;;;;;;;;5092707;28;20051;-71
2022/06/03 15:33:13;;;;;;;2.47;2.38;;;;;;;;;;5092919;28;20127;-68
2022/06/03 15:35:39;;;;;;;2.25;2.15;;;;;;;;;;5092274;28;20079;-72
2022/06/03 15:38:06;;;;;;;2.13;2.03;;;;;;;;;;5074428;28;20067;-71
2022/06/03 15:40:33;;;;;;;2.30;2.10;;;;;;;;;;5074143;28;20050;-74
2022/06/03 15:42:59;;;;;;;3.63;2.13;;;;;;;;;;5092589;28;20128;-72
2022/06/03 15:45:47;;;;;;;1.75;1.65;;;;;;;;;;5091397;28;20028;-73
2022/06/03 15:48:16;;;;;;;2.55;2.35;;;;;;;;;;5091750;28;20044;-73
2022/06/03 15:50:47;;;;;;;2.15;2.05;;;;;;;;;;5092469;28;20039;-73
2022/06/03 15:53:25;;;;;;;2.60;2.40;;;;;;;;;;5090764;28;20460;-73
2022/06/03 15:55:54;;;;;;;2.20;2.10;;;;;;;;;;5090650;28;20048;-73
2022/06/03 15:58:23;;;;;;;2.33;1.80;;;;;;;;;;5091159;28;20051;-73
2022/06/03 16:00:49;;;;;;;2.78;2.10;;;;;;;;;;5091975;28;20044;-73
2022/06/03 16:03:15;;;;;;;2.42;2.22;;;;;;;;;;5092234;28;20051;-73
2022/06/03 16:05:54;;;;;;;3.13;1.83;;;;;;;;;;5091920;28;20044;-73
2022/06/03 16:08:21;;;;;;;4.40;2.25;;;;;;;;;;5090843;28;20547;-72
2022/06/03 16:10:56;;;;;;;4.57;4.18;;;;;;;;;;5090469;28;20071;-75
2022/06/03 16:13:32;;;;;;;4.60;2.70;;;;;;;;;;5071764;28;20063;-73
2022/06/03 16:16:08;;;;;;;2.55;2.35;;;;;;;;;;5070435;28;20054;-72
2022/06/03 16:18:34;;;;;;;2.72;2.63;;;;;;;;;;5071615;28;20520;-72
2022/06/03 16:21:18;;;;;;;3.15;2.85;;;;;;;;;;5071638;28;20413;-72
2022/06/03 16:23:45;;;;;;;3.33;1.85;;;;;;;;;;5071576;28;20082;-69
2022/06/03 16:26:30;;;;;;;3.13;2.20;;;;;;;;;;5071467;28;20408;-73
2022/06/03 16:28:59;;;;;;;2.58;2.33;;;;;;;;;;5071430;28;20053;-73
2022/06/03 16:31:28;;;;;;;2.60;2.40;;;;;;;;;;5036945;28;20143;-73
2022/06/03 16:34:00;;;;;;;2.90;2.60;;;;;;;;;;5071099;28;20047;-73
2022/06/03 16:36:32;;;;;;;2.90;2.70;;;;;;;;;;5070985;28;20048;-73
2022/06/03 16:39:05;;;;;;;3.25;2.95;;;;;;;;;;5070832;28;20079;-73
2022/06/03 16:41:31;;;;;;;2.95;2.80;;;;;;;;;;5070940;28;20047;-73
2022/06/03 16:44:05;;;;;;;2.30;2.20;;;;;;;;;;5053143;28;20037;-72
2022/06/03 16:46:32;;;;;;;4.95;2.40;;;;;;;;;;5053197;28;20048;-72
2022/06/03 16:49:07;;;;;;;5.97;2.92;;;;;;;;;;5071007;28;20063;-73
2022/06/03 16:51:40;;;;;;;3.00;2.80;;;;;;;;;;5070964;28;20424;-73
2022/06/03 16:54:06;;;;;;;3.88;2.67;;;;;;;;;;5089457;28;20036;-72
2022/06/03 16:56:33;;;;;;;2.47;2.30;;;;;;;;;;5091063;28;20114;-73
2022/06/03 16:59:00;;;;;;;3.25;2.95;;;;;;;;;;5072767;28;20036;-73
2022/06/03 17:01:26;;;;;;;3.15;2.85;;;;;;;;;;5072925;28;20105;-73
2022/06/03 17:03:55;;;;;;;4.30;2.75;;;;;;;;;;5072709;28;20040;-73
2022/06/03 17:06:21;;;;;;;2.15;2.05;;;;;;;;;;5073250;28;20101;-73
2022/06/03 17:08:48;;;;;;;9.25;3.00;;;;;;;;;;5072717;28;20032;-73
2022/06/03 17:11:33;;;;;;;3.05;2.85;;;;;;;;;;5090720;28;20058;-73
2022/06/03 17:14:11;;;;;;;3.33;2.70;;;;;;;;;;5090983;28;20466;-72
2022/06/03 17:16:37;;;;;;;3.30;3.10;;;;;;;;;;5091533;28;20515;-75
2022/06/03 17:19:03;;;;;;;3.42;3.13;;;;;;;;;;5091194;28;20040;-73
2022/06/03 17:21:32;;;;;;;5.78;3.08;;;;;;;;;;5055972;28;20097;-73
2022/06/03 17:24:05;;;;;;;4.05;3.67;;;;;;;;;;5090452;28;20070;-72
2022/06/03 17:26:31;;;;;;;4.75;3.95;;;;;;;;;;5072429;28;20040;-73
2022/06/03 17:29:23;;;;;;;3.30;3.10;;;;;;;;;;5072328;28;20147;-72
2022/06/03 17:31:49;;;;;;;3.10;2.80;;;;;;;;;;5084003;28;20051;-74
2022/06/03 17:34:28;;;;;;;7.57;3.50;;;;;;;;;;5089182;28;20043;-73
2022/06/03 17:37:01;;;;;;;8.80;3.10;;;;;;;;;;5071711;28;20064;-72
2022/06/03 17:39:46;;;;;;;3.13;2.85;;;;;;;;;;5090371;28;20493;-73
2022/06/03 17:42:32;;;;;;;3.63;2.90;;;;;;;;;;5089583;28;20040;-72